Time;durP1;ratioP1;P1;durP2;ratioP2;P2;SDS_P1;SDS_P2;PMS_P1;PMS_P2;Temp;Humidity;BMP_temperature;BMP_pressure;BME280_temperature;BME280_humidity;BME280_pressure;Samples;Min_cycle;Max_cycle;Signal;HPM_P1;HPM_P2
2023/08/03 00:01:07;;;;;;;0.10;0.10;;;;;;;24.11;53.51;98827.41;4396445;32;34203;-84
2023/08/03 00:03:35;;;;;;;0.03;0.03;;;;;;;24.17;53.39;98822.16;4382138;32;32092;-84
2023/08/03 00:06:03;;;;;;;0.00;0.00;;;;;;;24.08;53.64;98817.84;4382446;32;32506;-85
2023/08/03 00:08:30;;;;;;;1.45;0.90;;;;;;;24.19;53.17;98819.28;4383383;32;33869;-84
2023/08/03 00:11:00;;;;;;;0.57;0.20;;;;;;;24.17;53.28;98811.37;4394838;32;34529;-84
2023/08/03 00:13:28;;;;;;;0.10;0.10;;;;;;;24.28;52.89;98812.81;4395568;32;32193;-84
2023/08/03 00:15:55;;;;;;;0.00;0.00;;;;;;;24.03;53.74;98817.53;4389271;32;35565;-84
2023/08/03 00:18:23;;;;;;;0.32;0.32;;;;;;;24.22;53.16;98817.06;4396588;32;34837;-84
2023/08/03 00:20:52;;;;;;;0.50;0.50;;;;;;;24.16;53.32;98823.16;4402434;32;33559;-84
2023/08/03 00:23:19;;;;;;;0.95;0.50;;;;;;;24.18;53.21;98815.75;4384067;32;32808;-84
2023/08/03 00:25:47;;;;;;;0.30;0.30;;;;;;;24.20;53.34;98824.47;4382679;32;32940;-84
2023/08/03 00:28:15;;;;;;;0.80;0.65;;;;;;;24.12;53.89;98821.84;4396435;32;33257;-84
2023/08/03 00:30:42;;;;;;;0.75;0.65;;;;;;;24.07;53.93;98821.56;4390457;32;34055;-84
2023/08/03 00:33:10;;;;;;;0.22;0.22;;;;;;;24.05;54.44;98831.66;4379022;32;33879;-84
2023/08/03 00:35:38;;;;;;;1.33;0.35;;;;;;;23.98;54.55;98828.00;4383087;32;33155;-84
2023/08/03 00:38:05;;;;;;;0.13;0.10;;;;;;;23.94;54.82;98835.59;4386005;32;33909;-84
2023/08/03 00:40:34;;;;;;;0.35;0.35;;;;;;;24.00;54.56;98821.41;4385386;32;34586;-84
2023/08/03 00:43:04;;;;;;;0.88;0.57;;;;;;;23.73;55.72;98827.25;4392559;32;31812;-84
2023/08/03 00:45:31;;;;;;;0.65;0.45;;;;;;;23.99;54.89;98821.59;4378217;32;33691;-84
2023/08/03 00:47:59;;;;;;;0.22;0.20;;;;;;;23.86;55.37;98824.84;4361158;32;32371;-84
2023/08/03 00:50:27;;;;;;;0.05;0.05;;;;;;;23.63;56.11;98827.44;4378503;32;34314;-84
2023/08/03 00:52:55;;;;;;;1.73;0.40;;;;;;;23.73;55.77;98830.78;4379304;32;31549;-83
2023/08/03 00:55:22;;;;;;;0.52;0.40;;;;;;;23.96;55.46;98830.03;4383362;32;32634;-83
2023/08/03 00:57:50;;;;;;;1.35;0.37;;;;;;;23.80;56.07;98835.50;4396914;32;34477;-83
2023/08/03 01:00:18;;;;;;;4.00;0.65;;;;;;;23.65;56.63;98841.63;4387717;32;32396;-83
2023/08/03 01:02:46;;;;;;;0.30;0.30;;;;;;;23.42;57.01;98843.34;4381092;32;32196;-83
2023/08/03 01:05:13;;;;;;;0.10;0.10;;;;;;;23.21;57.58;98847.41;4379604;32;33353;-83
2023/08/03 01:07:41;;;;;;;0.57;0.30;;;;;;;23.14;57.97;98853.66;4396904;32;33044;-83
2023/08/03 01:10:09;;;;;;;2.62;0.43;;;;;;;23.01;58.34;98846.09;4392313;32;32827;-84
2023/08/03 01:12:37;;;;;;;0.88;0.57;;;;;;;22.95;58.51;98842.22;4382749;32;34194;-83
2023/08/03 01:15:05;;;;;;;0.15;0.15;;;;;;;23.18;57.64;98842.37;4377125;32;32469;-83
2023/08/03 01:17:34;;;;;;;1.30;0.47;;;;;;;22.94;58.57;98837.03;4383465;32;32558;-83
2023/08/03 01:20:02;;;;;;;0.30;0.22;;;;;;;23.04;58.15;98840.38;4380531;32;33496;-83
2023/08/03 01:22:30;;;;;;;1.23;0.40;;;;;;;22.99;58.41;98845.44;4378985;32;33452;-83
2023/08/03 01:24:58;;;;;;;0.00;0.00;;;;;;;23.01;58.41;98832.63;4381218;32;33902;-83
2023/08/03 01:27:26;;;;;;;0.10;0.10;;;;;;;22.94;58.57;98828.94;4377978;32;33645;-84
2023/08/03 01:29:53;;;;;;;0.05;0.05;;;;;;;22.93;58.73;98827.25;4382938;32;33244;-84
2023/08/03 01:32:21;;;;;;;0.88;0.82;;;;;;;22.86;58.92;98835.13;4380366;32;33071;-84
2023/08/03 01:35:16;;;;;;;0.60;0.60;;;;;;;22.83;59.31;98837.31;4375228;32;33739;-84
2023/08/03 01:37:44;;;;;;;0.32;0.32;;;;;;;22.70;59.75;98827.06;4376962;32;33153;-86
2023/08/03 01:40:13;;;;;;;0.43;0.37;;;;;;;22.75;59.33;98828.25;4396133;32;33368;-86
2023/08/03 01:42:41;;;;;;;0.00;0.00;;;;;;;22.64;59.73;98831.25;4395425;32;33424;-85
2023/08/03 01:45:09;;;;;;;1.08;1.08;;;;;;;22.75;59.42;98824.72;4376903;32;34685;-85
2023/08/03 01:47:37;;;;;;;0.35;0.35;;;;;;;22.69;59.69;98820.84;4394638;32;32934;-84
2023/08/03 01:50:05;;;;;;;0.70;0.28;;;;;;;22.56;60.07;98811.59;4393988;32;33257;-84
2023/08/03 01:52:34;;;;;;;0.65;0.55;;;;;;;22.54;60.14;98818.97;4396830;32;32156;-85
2023/08/03 01:55:01;;;;;;;20.50;2.22;;;;;;;22.66;59.56;98818.50;4396098;32;34207;-85
2023/08/03 01:57:30;;;;;;;0.17;0.17;;;;;;;22.55;59.92;98812.59;4374637;32;35213;-86
2023/08/03 01:59:58;;;;;;;0.00;0.00;;;;;;;22.42;60.54;98802.34;4369993;32;33994;-84
2023/08/03 02:02:25;;;;;;;0.20;0.20;;;;;;;22.52;60.08;98800.31;4402723;32;33007;-84
2023/08/03 02:04:53;;;;;;;0.03;0.03;;;;;;;22.53;60.15;98802.00;4384625;32;33904;-84
2023/08/03 02:07:44;;;;;;;0.10;0.10;;;;;;;22.47;60.24;98805.37;4383640;32;33751;-85
2023/08/03 02:10:14;;;;;;;0.60;0.60;;;;;;;22.47;60.31;98806.22;4385938;32;33953;-85
2023/08/03 02:12:42;;;;;;;0.52;0.30;;;;;;;22.45;60.26;98812.75;4402271;32;33112;-85
2023/08/03 02:15:10;;;;;;;0.30;0.30;;;;;;;22.35;60.44;98812.91;4365837;32;32813;-85
2023/08/03 02:17:37;;;;;;;0.45;0.15;;;;;;;22.32;60.58;98812.41;4380493;32;33920;-85
2023/08/03 02:20:07;;;;;;;0.37;0.37;;;;;;;22.28;60.88;98819.97;4382471;32;33374;-85
2023/08/03 02:22:34;;;;;;;0.13;0.13;;;;;;;22.18;61.32;98821.97;4392948;32;33361;-85
2023/08/03 02:25:03;;;;;;;0.10;0.10;;;;;;;22.34;60.73;98826.53;4388895;32;33508;-85
2023/08/03 02:27:31;;;;;;;0.80;0.65;;;;;;;22.32;60.82;98818.63;4389359;32;34443;-84
2023/08/03 02:29:59;;;;;;;1.17;0.65;;;;;;;22.24;60.77;98818.63;4386418;32;34079;-84
2023/08/03 02:32:29;;;;;;;2.92;0.52;;;;;;;22.21;60.87;98822.47;4387882;32;33572;-83
2023/08/03 02:34:57;;;;;;;0.10;0.10;;;;;;;22.20;61.02;98820.78;4381171;32;32116;-84
2023/08/03 02:37:25;;;;;;;0.20;0.20;;;;;;;22.13;61.29;98827.00;4373693;32;33285;-83
2023/08/03 02:39:52;;;;;;;0.00;0.00;;;;;;;21.86;62.13;98828.88;4364455;32;33673;-82
2023/08/03 02:42:21;;;;;;;0.10;0.10;;;;;;;21.91;62.39;98825.72;4386134;32;33354;-82
2023/08/03 02:44:49;;;;;;;0.20;0.15;;;;;;;21.98;62.06;98821.34;4382830;32;33534;-84
2023/08/03 02:47:17;;;;;;;0.73;0.52;;;;;;;21.96;61.90;98820.69;4401143;32;34497;-85
2023/08/03 02:49:45;;;;;;;0.13;0.13;;;;;;;21.88;62.33;98831.41;4376282;32;34525;-85
2023/08/03 02:52:12;;;;;;;0.62;0.37;;;;;;;21.93;62.28;98823.69;4383642;32;32239;-85
2023/08/03 02:54:40;;;;;;;0.30;0.30;;;;;;;21.97;61.95;98830.44;4393763;32;34509;-85
2023/08/03 02:57:08;;;;;;;0.30;0.30;;;;;;;21.98;61.92;98832.97;4393887;32;33191;-84
2023/08/03 02:59:36;;;;;;;0.98;0.47;;;;;;;22.09;61.39;98826.44;4380876;32;34169;-85
2023/08/03 03:02:04;;;;;;;0.57;0.30;;;;;;;22.05;61.40;98825.09;4396463;32;34643;-84
2023/08/03 03:04:33;;;;;;;2.30;0.75;;;;;;;21.80;62.19;98834.91;4398481;32;32698;-84
2023/08/03 03:07:01;;;;;;;0.00;0.00;;;;;;;21.97;61.72;98830.44;4395289;32;33711;-85
2023/08/03 03:09:28;;;;;;;0.37;0.37;;;;;;;22.01;61.26;98828.25;4382691;32;32806;-84
2023/08/03 03:11:59;;;;;;;0.17;0.10;;;;;;;21.94;61.78;98820.88;4396275;32;32573;-84
2023/08/03 03:14:27;;;;;;;1.35;0.45;;;;;;;22.06;61.42;98826.75;4390574;32;33554;-84
2023/08/03 03:16:55;;;;;;;1.10;0.90;;;;;;;22.34;60.60;98834.59;4396415;32;33166;-84
2023/08/03 03:19:23;;;;;;;0.73;0.40;;;;;;;22.45;60.65;98828.88;4376110;32;34835;-84
2023/08/03 03:21:52;;;;;;;0.10;0.10;;;;;;;21.89;62.36;98836.63;4376163;32;33294;-84
2023/08/03 03:24:20;;;;;;;0.85;0.70;;;;;;;21.87;62.48;98837.78;4375785;32;34640;-84
2023/08/03 03:26:48;;;;;;;0.62;0.40;;;;;;;21.84;62.73;98835.41;4371694;32;33843;-84
2023/08/03 03:29:16;;;;;;;0.28;0.28;;;;;;;21.91;62.39;98842.69;4373660;32;33842;-84
2023/08/03 03:31:43;;;;;;;0.32;0.32;;;;;;;21.78;62.78;98857.56;4381516;32;32443;-84
2023/08/03 03:34:12;;;;;;;0.30;0.30;;;;;;;21.78;62.40;98863.78;4393924;32;32856;-84
2023/08/03 03:36:40;;;;;;;0.35;0.30;;;;;;;21.74;62.80;98857.03;4395879;32;34021;-84
2023/08/03 03:39:07;;;;;;;0.10;0.10;;;;;;;21.73;62.69;98856.19;4384924;32;33966;-84
2023/08/03 03:41:36;;;;;;;0.55;0.55;;;;;;;21.65;63.22;98856.19;4382331;32;32168;-84
2023/08/03 03:44:03;;;;;;;0.22;0.22;;;;;;;21.65;63.32;98858.88;4389951;32;33546;-84
2023/08/03 03:46:31;;;;;;;1.25;0.77;;;;;;;21.76;62.77;98843.47;4397456;32;34034;-84
2023/08/03 03:48:59;;;;;;;0.52;0.40;;;;;;;21.73;62.98;98853.50;4401109;32;34688;-84
2023/08/03 03:51:28;;;;;;;0.40;0.40;;;;;;;21.83;62.51;98855.25;4390914;32;34041;-84
2023/08/03 03:53:55;;;;;;;0.00;0.00;;;;;;;22.08;61.92;98838.22;4394327;32;33046;-84
2023/08/03 03:56:24;;;;;;;0.80;0.70;;;;;;;21.62;63.26;98848.44;4399994;32;33181;-84
2023/08/03 03:58:51;;;;;;;0.28;0.28;;;;;;;21.71;63.29;98847.47;4395516;32;33950;-83
2023/08/03 04:01:19;;;;;;;0.35;0.35;;;;;;;21.71;63.47;98850.16;4372937;32;95007;-83
2023/08/03 04:03:48;;;;;;;0.08;0.08;;;;;;;21.69;63.84;98849.47;4376122;32;32664;-83
2023/08/03 04:06:16;;;;;;;0.10;0.10;;;;;;;21.83;63.02;98844.50;4395310;32;34064;-83
2023/08/03 04:08:45;;;;;;;0.47;0.45;;;;;;;21.83;63.14;98833.75;4368497;32;33281;-83
2023/08/03 04:11:13;;;;;;;13.75;1.37;;;;;;;22.04;62.44;98828.78;4393255;32;31924;-83
2023/08/03 04:13:40;;;;;;;4.57;1.90;;;;;;;21.88;62.87;98850.22;4389938;32;33835;-84
2023/08/03 04:16:08;;;;;;;0.40;0.30;;;;;;;22.49;61.24;98830.25;4395733;32;33845;-84
2023/08/03 04:18:36;;;;;;;0.10;0.10;;;;;;;21.65;63.85;98840.06;4390651;32;34091;-84
2023/08/03 04:21:03;;;;;;;0.43;0.43;;;;;;;21.72;63.69;98851.84;4392924;32;31746;-84
2023/08/03 04:23:31;;;;;;;0.15;0.15;;;;;;;22.08;63.18;98838.22;4392069;32;33439;-84
2023/08/03 04:25:59;;;;;;;0.65;0.65;;;;;;;21.56;65.40;98854.47;4386264;32;33212;-83
2023/08/03 04:28:26;;;;;;;5.43;0.70;;;;;;;21.90;64.45;98850.91;4380385;32;34088;-83
2023/08/03 04:30:54;;;;;;;0.15;0.15;;;;;;;22.27;63.51;98838.97;4389698;32;32023;-84
2023/08/03 04:33:22;;;;;;;0.60;0.60;;;;;;;22.16;63.74;98851.69;4377631;32;34250;-85
2023/08/03 04:35:50;;;;;;;0.22;0.20;;;;;;;22.32;62.81;98840.16;4385742;32;32979;-85
2023/08/03 04:38:18;;;;;;;2.45;0.77;;;;;;;22.33;62.65;98836.44;4373350;32;34046;-85
2023/08/03 04:40:47;;;;;;;0.40;0.40;;;;;;;22.58;61.97;98837.31;4374107;32;33453;-85
2023/08/03 04:43:15;;;;;;;0.35;0.35;;;;;;;22.68;61.33;98835.28;4375595;32;33669;-85
2023/08/03 04:45:43;;;;;;;0.15;0.15;;;;;;;22.71;61.79;98834.97;4375285;32;33108;-85
2023/08/03 04:48:11;;;;;;;8.57;1.08;;;;;;;22.52;62.29;98826.38;4389973;32;33127;-85
2023/08/03 04:50:38;;;;;;;14.13;0.57;;;;;;;22.61;62.09;98828.91;4390477;32;32192;-86
2023/08/03 04:53:06;;;;;;;1.20;0.90;;;;;;;22.77;61.64;98827.22;4386557;32;32763;-85
2023/08/03 04:55:34;;;;;;;0.65;0.30;;;;;;;22.74;62.12;98826.56;4375612;32;33295;-86
2023/08/03 04:58:02;;;;;;;2.03;1.15;;;;;;;22.76;62.27;98834.47;4394051;32;33256;-86
2023/08/03 05:00:30;;;;;;;0.40;0.40;;;;;;;22.94;61.84;98837.03;4392848;32;32996;-86
2023/08/03 05:02:58;;;;;;;0.10;0.10;;;;;;;23.44;60.44;98823.28;4405317;32;33006;-86
2023/08/03 05:05:26;;;;;;;10.43;0.88;;;;;;;23.18;61.37;98830.75;4404954;32;32924;-86
2023/08/03 05:07:53;;;;;;;0.45;0.45;;;;;;;23.21;61.35;98828.56;4417822;32;32653;-86
2023/08/03 05:10:22;;;;;;;0.45;0.45;;;;;;;23.19;61.30;98841.34;4399011;32;33396;-85
2023/08/03 05:12:50;;;;;;;4.70;1.42;;;;;;;23.61;60.63;98831.31;4390639;32;33083;-85
2023/08/03 05:15:17;;;;;;;0.40;0.40;;;;;;;23.82;59.54;98828.06;4378004;32;32216;-84
2023/08/03 05:17:48;;;;;;;0.85;0.85;;;;;;;24.08;59.61;98828.63;4372702;32;33357;-85
2023/08/03 05:20:16;;;;;;;3.08;0.25;;;;;;;24.07;59.14;98831.47;4369225;32;33372;-84
2023/08/03 05:22:44;;;;;;;0.68;0.65;;;;;;;24.10;58.84;98823.88;4374168;32;33605;-84
2023/08/03 05:25:12;;;;;;;0.40;0.40;;;;;;;24.20;58.23;98832.56;4394031;32;33161;-83
2023/08/03 05:27:40;;;;;;;0.25;0.25;;;;;;;24.23;57.49;98832.22;4376948;32;33575;-83
2023/08/03 05:30:07;;;;;;;0.98;0.60;;;;;;;24.27;57.70;98838.97;4382833;32;33713;-83
2023/08/03 05:32:36;;;;;;;0.57;0.57;;;;;;;24.31;57.51;98828.66;4393098;32;34029;-83
2023/08/03 05:35:04;;;;;;;7.53;1.58;;;;;;;24.43;57.66;98827.25;4405509;32;32491;-83
2023/08/03 05:37:32;;;;;;;2.28;0.40;;;;;;;24.55;57.07;98819.59;4396814;32;31669;-83
2023/08/03 05:40:03;;;;;;;0.20;0.20;;;;;;;24.32;57.55;98833.03;4396062;32;32668;-83
2023/08/03 05:42:41;;;;;;;0.22;0.22;;;;;;;24.17;58.23;98838.34;4389117;32;33477;-83
2023/08/03 05:45:14;;;;;;;0.52;0.35;;;;;;;24.59;57.30;98837.06;4382803;32;33684;-83
2023/08/03 05:47:42;;;;;;;1.65;0.75;;;;;;;24.96;56.56;98841.66;4385888;32;34482;-83
2023/08/03 05:50:13;;;;;;;1.58;0.62;;;;;;;25.01;56.24;98841.13;4375908;32;33489;-83
2023/08/03 05:52:42;;;;;;;0.37;0.37;;;;;;;24.86;56.40;98842.94;4395155;32;33105;-84
2023/08/03 05:55:11;;;;;;;0.10;0.10;;;;;;;24.99;56.31;98841.31;4382794;32;33744;-84
2023/08/03 05:57:39;;;;;;;0.65;0.65;;;;;;;25.15;56.21;98843.03;4396013;32;34641;-83
2023/08/03 06:00:12;;;;;;;0.30;0.30;;;;;;;25.24;55.74;98836.53;4382428;32;33338;-83
2023/08/03 06:02:41;;;;;;;1.20;0.80;;;;;;;25.12;55.73;98832.63;4388588;32;33546;-83
2023/08/03 06:05:37;;;;;;;0.08;0.08;;;;;;;25.24;55.82;98841.94;4395183;32;32310;-83
2023/08/03 06:08:14;;;;;;;0.10;0.10;;;;;;;25.37;55.72;98851.28;4388393;32;33669;-83
2023/08/03 06:10:44;;;;;;;3.42;1.30;;;;;;;25.49;55.45;98847.94;4385899;32;33259;-83
2023/08/03 06:13:14;;;;;;;0.43;0.43;;;;;;;25.44;55.39;98844.94;4393004;32;33482;-84
2023/08/03 06:15:43;;;;;;;0.22;0.22;;;;;;;25.60;54.91;98843.09;4392236;32;33908;-84
2023/08/03 06:18:14;;;;;;;1.35;0.40;;;;;;;25.90;54.66;98847.47;4394175;32;33160;-84
2023/08/03 06:20:47;;;;;;;3.10;0.88;;;;;;;25.54;55.92;98855.47;4370812;32;32145;-84
2023/08/03 06:23:17;;;;;;;0.10;0.10;;;;;;;25.60;55.55;98851.22;4411517;32;32406;-84
2023/08/03 06:25:46;;;;;;;0.08;0.08;;;;;;;25.97;54.53;98858.37;4397036;32;33520;-84
2023/08/03 06:28:18;;;;;;;0.28;0.28;;;;;;;26.06;54.25;98857.25;4396183;32;33291;-84
2023/08/03 06:30:48;;;;;;;0.30;0.30;;;;;;;25.94;54.84;98859.59;4394463;32;33480;-84
2023/08/03 06:33:23;;;;;;;1.17;0.55;;;;;;;26.27;53.94;98868.13;4407033;32;32971;-84
2023/08/03 06:35:58;;;;;;;0.73;0.60;;;;;;;26.12;54.40;98859.22;4402754;32;32828;-84
2023/08/03 06:38:27;;;;;;;0.37;0.37;;;;;;;26.73;54.15;98861.53;4392613;32;34123;-84
2023/08/03 06:40:54;;;;;;;0.55;0.55;;;;;;;26.59;53.05;98870.56;4372764;32;33133;-84
2023/08/03 06:43:24;;;;;;;0.20;0.17;;;;;;;26.30;53.74;98865.06;4382137;32;32839;-84
2023/08/03 06:45:52;;;;;;;1.33;0.85;;;;;;;26.42;53.65;98875.38;4378519;32;33946;-84
2023/08/03 06:48:19;;;;;;;0.32;0.32;;;;;;;26.40;53.27;98874.75;4392685;32;32287;-84
2023/08/03 06:50:47;;;;;;;0.43;0.37;;;;;;;26.00;54.70;98880.47;4393512;32;32712;-84
2023/08/03 06:53:15;;;;;;;0.55;0.55;;;;;;;26.42;54.22;98875.38;4396196;32;33836;-84
2023/08/03 06:55:48;;;;;;;1.25;0.60;;;;;;;26.02;54.52;98877.59;4397324;32;34511;-84
2023/08/03 06:58:18;;;;;;;0.22;0.22;;;;;;;26.14;54.45;98884.19;4396090;32;33446;-84
2023/08/03 07:00:46;;;;;;;0.43;0.43;;;;;;;26.11;54.69;98884.59;4396927;32;33320;-85
2023/08/03 07:03:14;;;;;;;0.88;0.88;;;;;;;26.36;53.60;98889.69;4371872;32;33892;-85
2023/08/03 07:05:43;;;;;;;0.17;0.17;;;;;;;26.39;53.56;98892.81;4393521;32;32995;-84
2023/08/03 07:08:15;;;;;;;0.55;0.55;;;;;;;26.34;53.21;98891.72;4386408;32;32181;-84
2023/08/03 07:11:00;;;;;;;0.90;0.85;;;;;;;26.36;53.76;98900.50;4396481;32;31999;-86
2023/08/03 07:13:28;;;;;;;0.90;0.57;;;;;;;26.14;54.23;98900.44;4394594;32;33885;-87
2023/08/03 07:16:05;;;;;;;0.40;0.40;;;;;;;26.41;53.27;98898.91;4387223;32;33472;-86
2023/08/03 07:18:34;;;;;;;0.88;0.77;;;;;;;26.35;53.58;98906.91;4373834;32;33231;-87
2023/08/03 07:21:05;;;;;;;1.15;0.82;;;;;;;25.90;54.56;98911.56;4386983;32;32531;-88
2023/08/03 07:23:33;;;;;;;0.45;0.45;;;;;;;26.16;54.57;98908.34;4374602;32;32828;-87
2023/08/03 07:26:01;;;;;;;0.43;0.43;;;;;;;26.22;53.83;98911.16;4400793;32;33029;-88
2023/08/03 07:28:29;;;;;;;0.30;0.30;;;;;;;26.13;54.48;98917.69;4390285;32;33510;-87
2023/08/03 07:31:30;;;;;;;;;;;;;;;;;;;;;
2023/08/03 07:34:02;;;;;;;0.45;0.45;;;;;;;25.88;55.03;98921.72;4393713;32;32840;-86
2023/08/03 07:36:30;;;;;;;0.37;0.37;;;;;;;25.75;56.17;98923.22;4394707;32;33844;-88
2023/08/03 07:38:58;;;;;;;0.17;0.17;;;;;;;25.51;56.45;98924.28;4394441;32;33495;-86
2023/08/03 07:41:26;;;;;;;0.22;0.22;;;;;;;25.71;56.34;98934.53;4401417;32;32959;-85
2023/08/03 07:43:54;;;;;;;0.75;0.55;;;;;;;25.54;56.84;98947.38;4402033;32;32899;-86
2023/08/03 07:46:22;;;;;;;0.47;0.40;;;;;;;25.79;56.13;98950.72;4394119;32;33498;-86
2023/08/03 07:48:50;;;;;;;3.10;1.12;;;;;;;25.68;56.26;98954.66;4389170;32;32709;-86
2023/08/03 07:51:17;;;;;;;0.60;0.60;;;;;;;25.43;57.28;98953.22;4401285;32;32269;-86
2023/08/03 07:53:48;;;;;;;0.35;0.30;;;;;;;25.72;56.54;98937.06;4401519;32;33080;-86
2023/08/03 07:56:21;;;;;;;0.32;0.32;;;;;;;25.86;56.41;98940.00;4395181;32;33577;-86
2023/08/03 07:58:50;;;;;;;3.30;1.02;;;;;;;25.42;57.87;98940.75;4394366;32;32595;-86
2023/08/03 08:01:19;;;;;;;0.45;0.45;;;;;;;25.77;57.18;98950.06;4392059;32;32632;-86
2023/08/03 08:03:47;;;;;;;0.55;0.55;;;;;;;26.00;57.08;98955.38;4395201;32;33039;-86
2023/08/03 08:06:16;;;;;;;0.20;0.20;;;;;;;25.92;57.22;98958.16;4397077;32;33584;-86
2023/08/03 08:08:45;;;;;;;0.55;0.55;;;;;;;26.24;57.08;98952.38;4395608;32;32912;-86
2023/08/03 08:11:15;;;;;;;0.65;0.65;;;;;;;26.48;56.20;98950.44;4393107;32;33780;-89
2023/08/03 08:13:43;;;;;;;0.90;0.60;;;;;;;26.55;55.74;98956.78;4401220;32;33181;-87
2023/08/03 08:16:13;;;;;;;0.40;0.40;;;;;;;26.65;55.64;98965.44;4395225;32;33200;-87
2023/08/03 08:18:41;;;;;;;1.40;1.30;;;;;;;26.62;55.54;98965.78;4397034;32;32625;-87
2023/08/03 08:21:11;;;;;;;0.13;0.13;;;;;;;26.35;56.06;98969.16;4404143;32;32949;-87
2023/08/03 08:23:39;;;;;;;0.62;0.55;;;;;;;26.85;55.95;98975.66;4396191;32;32060;-86
2023/08/03 08:26:11;;;;;;;0.65;0.55;;;;;;;26.87;55.03;98979.84;4396654;32;33113;-90
2023/08/03 08:28:40;;;;;;;0.45;0.45;;;;;;;27.19;54.81;98978.53;4403808;32;33709;-89
2023/08/03 08:31:18;;;;;;;0.37;0.37;;;;;;;27.17;55.01;98977.91;4395733;32;33763;-88
2023/08/03 08:33:45;;;;;;;1.45;1.17;;;;;;;26.99;54.65;98988.31;4397555;32;32838;-88
2023/08/03 08:36:25;;;;;;;0.93;0.82;;;;;;;27.41;54.96;98986.66;4391447;32;33068;-88
2023/08/03 08:38:52;;;;;;;1.45;0.85;;;;;;;27.28;54.34;98982.78;4399557;32;33903;-89
2023/08/03 08:41:22;;;;;;;0.37;0.37;;;;;;;27.14;54.23;98980.97;4397105;32;32892;-89
2023/08/03 08:43:50;;;;;;;0.40;0.40;;;;;;;27.56;53.48;98982.00;4403819;32;33829;-86
2023/08/03 08:46:18;;;;;;;1.12;1.05;;;;;;;27.97;52.31;98990.28;4394777;32;32664;-86
2023/08/03 08:48:45;;;;;;;0.40;0.40;;;;;;;28.01;51.93;98985.25;4398581;32;33407;-86
2023/08/03 08:51:18;;;;;;;0.85;0.85;;;;;;;28.14;51.26;98988.06;4397773;32;32677;-86
2023/08/03 08:54:05;;;;;;;0.30;0.30;;;;;;;28.05;51.29;98995.53;4391512;32;34284;-85
2023/08/03 08:56:36;;;;;;;0.52;0.40;;;;;;;28.25;52.73;99001.09;4397311;32;34084;-86
2023/08/03 08:59:06;;;;;;;0.80;0.80;;;;;;;28.88;51.07;98991.97;4394118;32;32159;-86
2023/08/03 09:01:48;;;;;;;3.22;0.82;;;;;;;28.88;49.92;98990.09;4391235;32;32860;-86
2023/08/03 09:04:26;;;;;;;1.08;0.98;;;;;;;28.47;50.27;98990.16;4396566;32;33100;-86
2023/08/03 09:06:57;;;;;;;0.68;0.68;;;;;;;29.11;48.89;98987.06;4395133;32;33455;-86
2023/08/03 09:09:28;;;;;;;0.52;0.52;;;;;;;29.31;49.04;98993.34;4395354;32;33013;-86
2023/08/03 09:11:55;;;;;;;2.22;1.10;;;;;;;29.22;48.92;98985.59;4394366;32;33245;-86
2023/08/03 09:14:24;;;;;;;2.10;1.65;;;;;;;29.03;49.76;99000.84;4403863;32;33638;-86
2023/08/03 09:16:52;;;;;;;8.98;1.10;;;;;;;28.94;48.97;98993.88;4397494;32;32944;-86
2023/08/03 09:19:38;;;;;;;0.57;0.47;;;;;;;28.90;48.27;98985.28;4393062;32;33679;-86
2023/08/03 09:22:26;;;;;;;1.20;0.80;;;;;;;28.99;49.19;98983.25;4402355;32;32698;-86
2023/08/03 09:24:59;;;;;;;0.60;0.60;;;;;;;29.28;48.98;98974.72;4398090;32;33945;-86
2023/08/03 09:27:27;;;;;;;0.20;0.20;;;;;;;29.56;48.45;98988.16;4392529;32;34031;-85
2023/08/03 09:30:03;;;;;;;0.98;0.93;;;;;;;30.12;47.11;98991.47;4395526;32;32484;-86
2023/08/03 09:32:42;;;;;;;0.82;0.82;;;;;;;30.30;46.54;99000.66;4396420;32;33852;-86
2023/08/03 09:35:23;;;;;;;0.98;0.70;;;;;;;30.12;45.60;99008.63;4397109;32;32475;-86
2023/08/03 09:37:53;;;;;;;0.40;0.25;;;;;;;30.28;46.03;99010.91;4403515;32;32942;-86
2023/08/03 09:40:20;;;;;;;0.60;0.35;;;;;;;30.55;44.72;99016.31;4396700;32;33868;-86
2023/08/03 09:42:48;;;;;;;0.32;0.32;;;;;;;30.52;45.41;99014.81;4403496;32;33884;-85
2023/08/03 09:45:17;;;;;;;0.40;0.40;;;;;;;30.07;46.04;99008.44;4385247;32;34634;-86
2023/08/03 09:47:50;;;;;;;0.55;0.55;;;;;;;30.22;45.89;99019.13;4394620;32;34003;-85
2023/08/03 09:50:19;;;;;;;0.20;0.20;;;;;;;30.45;45.93;99013.19;4396162;32;34716;-86
2023/08/03 09:52:49;;;;;;;1.08;1.08;;;;;;;30.74;43.74;99011.84;4397190;32;33096;-85
2023/08/03 09:55:26;;;;;;;0.10;0.10;;;;;;;30.99;43.82;99009.22;4397653;32;33509;-85
2023/08/03 09:58:00;;;;;;;2.37;1.62;;;;;;;30.47;44.58;99021.97;4402428;32;34585;-85
2023/08/03 10:00:28;;;;;;;0.50;0.50;;;;;;;30.40;44.76;99021.19;4385303;32;32638;-89
2023/08/03 10:03:10;;;;;;;1.25;0.65;;;;;;;30.28;44.79;99027.25;4395813;32;33109;-86
2023/08/03 10:05:40;;;;;;;2.50;1.10;;;;;;;29.96;45.08;99030.84;4397865;32;33927;-86
2023/08/03 10:08:14;;;;;;;0.62;0.62;;;;;;;30.68;43.55;99031.78;4390672;32;33880;-86
2023/08/03 10:10:46;;;;;;;0.22;0.22;;;;;;;30.86;43.51;99026.50;4403367;32;34557;-86
2023/08/03 10:13:17;;;;;;;0.40;0.30;;;;;;;30.49;43.61;99017.16;4394902;32;32325;-85
2023/08/03 10:15:45;;;;;;;1.12;1.00;;;;;;;31.03;41.09;99021.34;4392310;32;32960;-86
2023/08/03 10:18:13;;;;;;;0.77;0.65;;;;;;;31.08;41.75;99014.19;4398240;32;32449;-85
2023/08/03 10:20:41;;;;;;;0.50;0.50;;;;;;;30.72;42.53;99009.34;4402351;32;34516;-85
2023/08/03 10:23:09;;;;;;;0.73;0.73;;;;;;;30.84;42.29;99015.78;4395232;32;33350;-85
2023/08/03 10:25:49;;;;;;;2.15;0.88;;;;;;;30.78;42.70;99013.09;4390676;32;32871;-85
2023/08/03 10:28:18;;;;;;;0.68;0.68;;;;;;;30.61;42.54;99023.59;4392147;32;33346;-85
2023/08/03 10:31:07;;;;;;;1.27;0.95;;;;;;;30.40;42.16;99030.19;4391907;32;33442;-85
2023/08/03 10:33:55;;;;;;;3.80;0.55;;;;;;;30.62;41.71;99019.81;4395283;32;32685;-85
2023/08/03 10:36:26;;;;;;;2.37;0.43;;;;;;;30.63;41.00;99021.53;4384451;32;33707;-85
2023/08/03 10:39:02;;;;;;;0.40;0.40;;;;;;;30.54;42.69;99030.97;4396666;32;34886;-85
2023/08/03 10:41:36;;;;;;;0.68;0.65;;;;;;;30.65;41.39;99026.75;4401880;32;33623;-85
2023/08/03 10:44:09;;;;;;;0.50;0.40;;;;;;;30.61;39.93;99029.06;4402976;32;33890;-84
2023/08/03 10:46:38;;;;;;;0.30;0.30;;;;;;;30.65;40.16;99027.56;4395737;32;34234;-85
2023/08/03 10:49:18;;;;;;;1.42;0.88;;;;;;;30.48;39.62;99040.00;4396286;32;33840;-85
2023/08/03 10:51:47;;;;;;;0.60;0.52;;;;;;;30.87;39.04;99030.03;4392090;32;34048;-85
2023/08/03 10:54:16;;;;;;;0.77;0.68;;;;;;;30.54;38.74;99039.16;4402577;32;33628;-85
2023/08/03 10:57:08;;;;;;;1.12;0.73;;;;;;;31.05;36.97;99030.12;4394100;32;33515;-85
2023/08/03 10:59:39;;;;;;;;;;;;;;;30.63;36.44;99028.84;4402980;32;32286;-85
2023/08/03 11:02:28;;;;;;;0.35;0.35;;;;;;;31.05;32.46;99031.00;4396937;32;34031;-85
2023/08/03 11:05:03;;;;;;;1.95;0.50;;;;;;;30.89;34.88;99031.50;4391642;32;32975;-85
2023/08/03 11:07:37;;;;;;;0.37;0.37;;;;;;;30.93;36.85;99026.44;4395928;32;33138;-85
2023/08/03 11:10:09;;;;;;;0.28;0.28;;;;;;;31.42;33.53;99030.38;4401730;32;34097;-85
2023/08/03 11:12:37;;;;;;;0.05;0.05;;;;;;;31.32;33.96;99039.88;4403231;32;34262;-85
2023/08/03 11:15:06;;;;;;;0.30;0.30;;;;;;;31.01;34.89;99037.09;4394569;32;33088;-85
2023/08/03 11:17:35;;;;;;;0.35;0.35;;;;;;;30.70;34.62;99046.84;4397916;32;33616;-85
2023/08/03 11:20:06;;;;;;;0.55;0.55;;;;;;;30.77;33.88;99055.87;4402825;32;33684;-85
2023/08/03 11:22:33;;;;;;;0.47;0.32;;;;;;;30.63;33.09;99062.38;4396366;32;32963;-85
2023/08/03 11:25:04;;;;;;;0.25;0.25;;;;;;;30.64;33.49;99072.22;4396554;32;32797;-85
2023/08/03 11:27:32;;;;;;;0.47;0.47;;;;;;;30.48;35.37;99078.13;4393848;32;34205;-84
2023/08/03 11:30:03;;;;;;;0.20;0.20;;;;;;;30.30;35.12;99081.53;4395711;32;33709;-85
2023/08/03 11:32:33;;;;;;;0.30;0.30;;;;;;;30.47;35.83;99076.47;4395821;32;34677;-88
2023/08/03 11:35:04;;;;;;;0.40;0.40;;;;;;;30.10;36.16;99087.81;4389976;32;33430;-86
2023/08/03 11:37:33;;;;;;;0.15;0.15;;;;;;;29.96;36.28;99091.59;4396968;32;34672;-86
2023/08/03 11:40:08;;;;;;;1.33;0.88;;;;;;;30.20;36.41;99090.12;4393115;32;34091;-86
2023/08/03 11:42:38;;;;;;;0.10;0.10;;;;;;;30.03;36.47;99086.13;4389431;32;33437;-87
2023/08/03 11:45:07;;;;;;;0.95;0.60;;;;;;;30.74;36.01;99097.16;4393322;32;34512;-88
2023/08/03 11:47:43;;;;;;;0.60;0.52;;;;;;;30.54;37.09;99104.53;4397493;32;33506;-85